sensor_id;sensor_type;location;lat;lon;timestamp;P1;durP1;ratioP1;P2;durP2;ratioP2
59388;SDS011;51830;45.202;19.720;2023-04-06T00:01:45;15.48;;;4.13;;
59388;SDS011;51830;45.202;19.720;2023-04-06T00:04:12;12.88;;;3.58;;
59388;SDS011;51830;45.202;19.720;2023-04-06T00:06:38;13.32;;;3.70;;
59388;SDS011;51830;45.202;19.720;2023-04-06T00:09:04;10.95;;;3.13;;
59388;SDS011;51830;45.202;19.720;2023-04-06T00:11:31;14.80;;;4.45;;
59388;SDS011;51830;45.202;19.720;2023-04-06T00:13:57;13.52;;;3.83;;
59388;SDS011;51830;45.202;19.720;2023-04-06T00:16:23;12.73;;;3.95;;
59388;SDS011;51830;45.202;19.720;2023-04-06T00:18:49;11.43;;;3.75;;
59388;SDS011;51830;45.202;19.720;2023-04-06T00:21:15;10.80;;;3.88;;
59388;SDS011;51830;45.202;19.720;2023-04-06T00:23:41;9.55;;;3.55;;
59388;SDS011;51830;45.202;19.720;2023-04-06T00:26:08;10.40;;;3.63;;
59388;SDS011;51830;45.202;19.720;2023-04-06T00:28:36;11.73;;;3.38;;
59388;SDS011;51830;45.202;19.720;2023-04-06T00:31:03;11.23;;;3.85;;
59388;SDS011;51830;45.202;19.720;2023-04-06T00:33:29;13.70;;;4.20;;
59388;SDS011;51830;45.202;19.720;2023-04-06T00:35:55;13.95;;;4.25;;
59388;SDS011;51830;45.202;19.720;2023-04-06T00:38:21;14.98;;;4.65;;
59388;SDS011;51830;45.202;19.720;2023-04-06T00:40:48;12.75;;;3.50;;
59388;SDS011;51830;45.202;19.720;2023-04-06T00:43:14;11.02;;;3.85;;
59388;SDS011;51830;45.202;19.720;2023-04-06T00:45:40;12.10;;;3.47;;
59388;SDS011;51830;45.202;19.720;2023-04-06T00:48:07;9.98;;;3.45;;
59388;SDS011;51830;45.202;19.720;2023-04-06T00:50:34;10.18;;;3.53;;
59388;SDS011;51830;45.202;19.720;2023-04-06T00:53:01;15.88;;;4.32;;
59388;SDS011;51830;45.202;19.720;2023-04-06T00:55:30;9.93;;;3.05;;
59388;SDS011;51830;45.202;19.720;2023-04-06T00:57:58;15.60;;;4.63;;
59388;SDS011;51830;45.202;19.720;2023-04-06T01:00:26;14.18;;;4.45;;
59388;SDS011;51830;45.202;19.720;2023-04-06T01:02:52;13.20;;;4.13;;
59388;SDS011;51830;45.202;19.720;2023-04-06T01:05:18;14.65;;;4.40;;
59388;SDS011;51830;45.202;19.720;2023-04-06T01:07:45;13.63;;;3.72;;
59388;SDS011;51830;45.202;19.720;2023-04-06T01:10:21;11.02;;;3.58;;
59388;SDS011;51830;45.202;19.720;2023-04-06T01:12:48;11.63;;;3.78;;
59388;SDS011;51830;45.202;19.720;2023-04-06T01:15:15;15.15;;;4.90;;
59388;SDS011;51830;45.202;19.720;2023-04-06T01:17:41;12.73;;;3.63;;
59388;SDS011;51830;45.202;19.720;2023-04-06T01:20:08;11.45;;;3.58;;
59388;SDS011;51830;45.202;19.720;2023-04-06T01:22:34;13.23;;;4.03;;
59388;SDS011;51830;45.202;19.720;2023-04-06T01:25:00;15.07;;;4.65;;
59388;SDS011;51830;45.202;19.720;2023-04-06T01:27:26;10.35;;;3.22;;
59388;SDS011;51830;45.202;19.720;2023-04-06T01:29:54;14.70;;;4.63;;
59388;SDS011;51830;45.202;19.720;2023-04-06T01:32:21;14.57;;;4.30;;
59388;SDS011;51830;45.202;19.720;2023-04-06T01:34:47;16.90;;;5.25;;
59388;SDS011;51830;45.202;19.720;2023-04-06T01:37:13;13.25;;;4.03;;
59388;SDS011;51830;45.202;19.720;2023-04-06T01:39:40;13.27;;;3.90;;
59388;SDS011;51830;45.202;19.720;2023-04-06T01:42:06;18.25;;;3.70;;
59388;SDS011;51830;45.202;19.720;2023-04-06T01:44:33;14.70;;;4.25;;
59388;SDS011;51830;45.202;19.720;2023-04-06T01:46:59;10.90;;;3.33;;
59388;SDS011;51830;45.202;19.720;2023-04-06T01:49:25;10.30;;;3.58;;
59388;SDS011;51830;45.202;19.720;2023-04-06T01:51:51;14.15;;;3.97;;
59388;SDS011;51830;45.202;19.720;2023-04-06T01:54:19;16.48;;;5.07;;
59388;SDS011;51830;45.202;19.720;2023-04-06T01:56:45;11.18;;;3.95;;
59388;SDS011;51830;45.202;19.720;2023-04-06T01:59:11;14.65;;;4.68;;
59388;SDS011;51830;45.202;19.720;2023-04-06T02:01:37;8.07;;;3.00;;
59388;SDS011;51830;45.202;19.720;2023-04-06T02:04:03;12.73;;;3.60;;
59388;SDS011;51830;45.202;19.720;2023-04-06T02:06:30;11.77;;;3.90;;
59388;SDS011;51830;45.202;19.720;2023-04-06T02:08:56;13.38;;;4.20;;
59388;SDS011;51830;45.202;19.720;2023-04-06T02:11:22;13.70;;;4.63;;
59388;SDS011;51830;45.202;19.720;2023-04-06T02:13:48;10.40;;;3.60;;
59388;SDS011;51830;45.202;19.720;2023-04-06T02:16:14;14.63;;;4.00;;
59388;SDS011;51830;45.202;19.720;2023-04-06T02:18:41;12.68;;;4.43;;
59388;SDS011;51830;45.202;19.720;2023-04-06T02:21:07;13.30;;;4.65;;
59388;SDS011;51830;45.202;19.720;2023-04-06T02:23:33;13.23;;;3.85;;
59388;SDS011;51830;45.202;19.720;2023-04-06T02:25:59;13.02;;;4.50;;
59388;SDS011;51830;45.202;19.720;2023-04-06T02:28:26;13.05;;;4.47;;
59388;SDS011;51830;45.202;19.720;2023-04-06T02:30:52;10.93;;;3.65;;
59388;SDS011;51830;45.202;19.720;2023-04-06T02:33:18;14.95;;;4.38;;
59388;SDS011;51830;45.202;19.720;2023-04-06T02:35:45;15.10;;;4.63;;
59388;SDS011;51830;45.202;19.720;2023-04-06T02:38:11;15.15;;;4.07;;
59388;SDS011;51830;45.202;19.720;2023-04-06T02:40:37;14.23;;;4.57;;
59388;SDS011;51830;45.202;19.720;2023-04-06T02:43:04;18.35;;;5.78;;
59388;SDS011;51830;45.202;19.720;2023-04-06T02:45:30;13.48;;;4.80;;
59388;SDS011;51830;45.202;19.720;2023-04-06T02:47:56;14.50;;;4.85;;
59388;SDS011;51830;45.202;19.720;2023-04-06T02:50:22;17.70;;;5.07;;
59388;SDS011;51830;45.202;19.720;2023-04-06T02:52:48;12.43;;;4.07;;
59388;SDS011;51830;45.202;19.720;2023-04-06T02:55:15;14.65;;;5.05;;
59388;SDS011;51830;45.202;19.720;2023-04-06T02:57:41;16.55;;;5.30;;
59388;SDS011;51830;45.202;19.720;2023-04-06T03:00:07;16.77;;;5.60;;
59388;SDS011;51830;45.202;19.720;2023-04-06T03:02:34;12.40;;;4.30;;
59388;SDS011;51830;45.202;19.720;2023-04-06T03:05:00;24.42;;;5.80;;
59388;SDS011;51830;45.202;19.720;2023-04-06T03:07:28;14.07;;;5.13;;
59388;SDS011;51830;45.202;19.720;2023-04-06T03:09:54;12.65;;;4.90;;
59388;SDS011;51830;45.202;19.720;2023-04-06T03:12:21;14.18;;;4.40;;
59388;SDS011;51830;45.202;19.720;2023-04-06T03:14:47;14.73;;;4.65;;
59388;SDS011;51830;45.202;19.720;2023-04-06T03:17:13;17.52;;;5.68;;
59388;SDS011;51830;45.202;19.720;2023-04-06T03:19:39;13.38;;;4.35;;
59388;SDS011;51830;45.202;19.720;2023-04-06T03:22:06;13.98;;;4.30;;
59388;SDS011;51830;45.202;19.720;2023-04-06T03:24:32;13.23;;;4.65;;
59388;SDS011;51830;45.202;19.720;2023-04-06T03:26:58;18.08;;;4.93;;
59388;SDS011;51830;45.202;19.720;2023-04-06T03:29:25;14.10;;;4.38;;
59388;SDS011;51830;45.202;19.720;2023-04-06T03:31:52;14.23;;;4.78;;
59388;SDS011;51830;45.202;19.720;2023-04-06T03:34:18;15.13;;;5.65;;
59388;SDS011;51830;45.202;19.720;2023-04-06T03:36:45;15.77;;;5.00;;
59388;SDS011;51830;45.202;19.720;2023-04-06T03:39:11;12.52;;;4.32;;
59388;SDS011;51830;45.202;19.720;2023-04-06T03:41:38;14.70;;;4.63;;
59388;SDS011;51830;45.202;19.720;2023-04-06T03:44:05;13.63;;;4.13;;
59388;SDS011;51830;45.202;19.720;2023-04-06T03:46:31;9.65;;;3.50;;
59388;SDS011;51830;45.202;19.720;2023-04-06T03:48:57;17.60;;;5.22;;
59388;SDS011;51830;45.202;19.720;2023-04-06T03:51:23;12.77;;;3.95;;
59388;SDS011;51830;45.202;19.720;2023-04-06T03:53:50;15.25;;;4.97;;
59388;SDS011;51830;45.202;19.720;2023-04-06T03:56:16;15.65;;;5.05;;
59388;SDS011;51830;45.202;19.720;2023-04-06T03:58:42;15.00;;;4.68;;
59388;SDS011;51830;45.202;19.720;2023-04-06T04:01:10;11.48;;;4.07;;
59388;SDS011;51830;45.202;19.720;2023-04-06T04:03:36;15.75;;;5.47;;
59388;SDS011;51830;45.202;19.720;2023-04-06T04:06:03;15.48;;;5.32;;
59388;SDS011;51830;45.202;19.720;2023-04-06T04:08:29;15.25;;;5.40;;
59388;SDS011;51830;45.202;19.720;2023-04-06T04:10:56;15.80;;;4.60;;
59388;SDS011;51830;45.202;19.720;2023-04-06T04:13:22;12.95;;;4.28;;
59388;SDS011;51830;45.202;19.720;2023-04-06T04:15:48;14.10;;;4.88;;
59388;SDS011;51830;45.202;19.720;2023-04-06T04:18:15;13.60;;;5.00;;
59388;SDS011;51830;45.202;19.720;2023-04-06T04:20:41;17.52;;;5.03;;
59388;SDS011;51830;45.202;19.720;2023-04-06T04:23:07;18.10;;;6.35;;
59388;SDS011;51830;45.202;19.720;2023-04-06T04:25:33;19.48;;;7.97;;
59388;SDS011;51830;45.202;19.720;2023-04-06T04:28:00;16.58;;;6.72;;
59388;SDS011;51830;45.202;19.720;2023-04-06T04:30:26;19.83;;;6.63;;
59388;SDS011;51830;45.202;19.720;2023-04-06T04:32:52;21.20;;;8.73;;
59388;SDS011;51830;45.202;19.720;2023-04-06T04:35:18;22.30;;;7.30;;
59388;SDS011;51830;45.202;19.720;2023-04-06T04:37:45;22.33;;;6.35;;
59388;SDS011;51830;45.202;19.720;2023-04-06T04:40:11;18.05;;;7.25;;
59388;SDS011;51830;45.202;19.720;2023-04-06T04:42:38;19.10;;;8.25;;
59388;SDS011;51830;45.202;19.720;2023-04-06T04:45:04;21.27;;;9.10;;
59388;SDS011;51830;45.202;19.720;2023-04-06T04:47:30;18.75;;;7.65;;
59388;SDS011;51830;45.202;19.720;2023-04-06T04:49:57;20.85;;;6.45;;
59388;SDS011;51830;45.202;19.720;2023-04-06T04:52:23;19.30;;;7.38;;
59388;SDS011;51830;45.202;19.720;2023-04-06T04:54:49;20.58;;;8.25;;
59388;SDS011;51830;45.202;19.720;2023-04-06T04:57:15;20.77;;;7.25;;
59388;SDS011;51830;45.202;19.720;2023-04-06T04:59:42;22.02;;;8.00;;
59388;SDS011;51830;45.202;19.720;2023-04-06T05:02:08;18.60;;;7.55;;
59388;SDS011;51830;45.202;19.720;2023-04-06T05:04:35;26.95;;;10.02;;
59388;SDS011;51830;45.202;19.720;2023-04-06T05:07:10;22.70;;;8.25;;
59388;SDS011;51830;45.202;19.720;2023-04-06T05:09:36;18.73;;;7.78;;
59388;SDS011;51830;45.202;19.720;2023-04-06T05:12:02;19.25;;;9.57;;
59388;SDS011;51830;45.202;19.720;2023-04-06T05:14:29;22.15;;;7.93;;
59388;SDS011;51830;45.202;19.720;2023-04-06T05:16:55;22.35;;;8.32;;
59388;SDS011;51830;45.202;19.720;2023-04-06T05:19:21;18.65;;;8.40;;
59388;SDS011;51830;45.202;19.720;2023-04-06T05:21:48;25.10;;;8.13;;
59388;SDS011;51830;45.202;19.720;2023-04-06T05:24:14;22.83;;;9.02;;
59388;SDS011;51830;45.202;19.720;2023-04-06T05:26:40;16.48;;;6.07;;
59388;SDS011;51830;45.202;19.720;2023-04-06T05:29:06;15.43;;;5.18;;
59388;SDS011;51830;45.202;19.720;2023-04-06T05:31:33;13.02;;;4.55;;
59388;SDS011;51830;45.202;19.720;2023-04-06T05:33:59;11.07;;;4.40;;
59388;SDS011;51830;45.202;19.720;2023-04-06T05:36:25;16.73;;;5.13;;
59388;SDS011;51830;45.202;19.720;2023-04-06T05:38:51;12.98;;;4.30;;
59388;SDS011;51830;45.202;19.720;2023-04-06T05:41:18;14.70;;;5.70;;
59388;SDS011;51830;45.202;19.720;2023-04-06T05:43:45;16.05;;;6.18;;
59388;SDS011;51830;45.202;19.720;2023-04-06T05:46:11;12.32;;;3.95;;
59388;SDS011;51830;45.202;19.720;2023-04-06T05:48:37;18.42;;;7.30;;
59388;SDS011;51830;45.202;19.720;2023-04-06T05:51:04;11.77;;;3.78;;
59388;SDS011;51830;45.202;19.720;2023-04-06T05:53:33;13.63;;;4.82;;
59388;SDS011;51830;45.202;19.720;2023-04-06T05:56:02;15.32;;;5.13;;
59388;SDS011;51830;45.202;19.720;2023-04-06T05:58:29;13.63;;;4.78;;
59388;SDS011;51830;45.202;19.720;2023-04-06T06:00:58;15.90;;;5.18;;
59388;SDS011;51830;45.202;19.720;2023-04-06T06:03:25;15.82;;;4.70;;
59388;SDS011;51830;45.202;19.720;2023-04-06T06:05:51;14.18;;;4.28;;
59388;SDS011;51830;45.202;19.720;2023-04-06T06:08:17;17.13;;;5.78;;
59388;SDS011;51830;45.202;19.720;2023-04-06T06:10:43;11.63;;;4.30;;
59388;SDS011;51830;45.202;19.720;2023-04-06T06:13:09;15.05;;;5.70;;
59388;SDS011;51830;45.202;19.720;2023-04-06T06:15:36;13.60;;;5.05;;
59388;SDS011;51830;45.202;19.720;2023-04-06T06:18:02;14.93;;;5.78;;
59388;SDS011;51830;45.202;19.720;2023-04-06T06:20:28;12.55;;;4.68;;
59388;SDS011;51830;45.202;19.720;2023-04-06T06:22:54;15.90;;;5.80;;
59388;SDS011;51830;45.202;19.720;2023-04-06T06:25:21;16.65;;;4.72;;
59388;SDS011;51830;45.202;19.720;2023-04-06T06:27:47;12.90;;;4.45;;
59388;SDS011;51830;45.202;19.720;2023-04-06T06:30:14;16.98;;;6.30;;
59388;SDS011;51830;45.202;19.720;2023-04-06T06:32:40;16.70;;;5.85;;
59388;SDS011;51830;45.202;19.720;2023-04-06T06:35:06;16.92;;;5.50;;
59388;SDS011;51830;45.202;19.720;2023-04-06T06:37:32;17.20;;;6.43;;
59388;SDS011;51830;45.202;19.720;2023-04-06T06:39:59;17.27;;;6.68;;
59388;SDS011;51830;45.202;19.720;2023-04-06T06:42:25;21.10;;;8.00;;
59388;SDS011;51830;45.202;19.720;2023-04-06T06:44:51;31.70;;;8.15;;
59388;SDS011;51830;45.202;19.720;2023-04-06T06:47:17;22.20;;;7.47;;
59388;SDS011;51830;45.202;19.720;2023-04-06T06:49:44;19.35;;;8.00;;
59388;SDS011;51830;45.202;19.720;2023-04-06T06:52:10;20.35;;;7.18;;
59388;SDS011;51830;45.202;19.720;2023-04-06T06:54:36;24.13;;;11.52;;
59388;SDS011;51830;45.202;19.720;2023-04-06T06:57:02;32.08;;;12.82;;
59388;SDS011;51830;45.202;19.720;2023-04-06T06:59:29;27.00;;;9.70;;
59388;SDS011;51830;45.202;19.720;2023-04-06T07:01:55;30.20;;;12.40;;
59388;SDS011;51830;45.202;19.720;2023-04-06T07:04:21;30.65;;;13.45;;
59388;SDS011;51830;45.202;19.720;2023-04-06T07:06:47;33.50;;;12.25;;
59388;SDS011;51830;45.202;19.720;2023-04-06T07:09:13;28.92;;;12.50;;
59388;SDS011;51830;45.202;19.720;2023-04-06T07:11:40;28.27;;;11.30;;
59388;SDS011;51830;45.202;19.720;2023-04-06T07:14:06;30.13;;;11.32;;
59388;SDS011;51830;45.202;19.720;2023-04-06T07:16:32;32.90;;;11.65;;
59388;SDS011;51830;45.202;19.720;2023-04-06T07:18:59;24.10;;;8.98;;
59388;SDS011;51830;45.202;19.720;2023-04-06T07:21:25;29.13;;;11.77;;
59388;SDS011;51830;45.202;19.720;2023-04-06T07:23:51;21.80;;;9.35;;
59388;SDS011;51830;45.202;19.720;2023-04-06T07:26:18;23.83;;;9.18;;
59388;SDS011;51830;45.202;19.720;2023-04-06T07:28:44;21.42;;;6.80;;
59388;SDS011;51830;45.202;19.720;2023-04-06T07:31:10;19.77;;;7.00;;
59388;SDS011;51830;45.202;19.720;2023-04-06T07:33:36;21.40;;;6.53;;
59388;SDS011;51830;45.202;19.720;2023-04-06T07:36:03;14.23;;;4.57;;
59388;SDS011;51830;45.202;19.720;2023-04-06T07:38:29;17.25;;;6.05;;
59388;SDS011;51830;45.202;19.720;2023-04-06T07:40:55;23.48;;;5.78;;
59388;SDS011;51830;45.202;19.720;2023-04-06T07:43:22;14.80;;;5.22;;
59388;SDS011;51830;45.202;19.720;2023-04-06T07:45:48;17.55;;;5.10;;
59388;SDS011;51830;45.202;19.720;2023-04-06T07:48:14;15.05;;;4.78;;
59388;SDS011;51830;45.202;19.720;2023-04-06T07:50:41;13.90;;;4.60;;
59388;SDS011;51830;45.202;19.720;2023-04-06T07:53:08;18.38;;;5.55;;
59388;SDS011;51830;45.202;19.720;2023-04-06T07:55:34;14.80;;;4.95;;
59388;SDS011;51830;45.202;19.720;2023-04-06T07:58:01;15.15;;;4.40;;
59388;SDS011;51830;45.202;19.720;2023-04-06T08:00:27;17.92;;;5.15;;
59388;SDS011;51830;45.202;19.720;2023-04-06T08:02:53;13.00;;;4.25;;
59388;SDS011;51830;45.202;19.720;2023-04-06T08:05:19;14.30;;;3.83;;
59388;SDS011;51830;45.202;19.720;2023-04-06T08:07:46;15.98;;;3.72;;
59388;SDS011;51830;45.202;19.720;2023-04-06T08:10:12;14.10;;;4.47;;
59388;SDS011;51830;45.202;19.720;2023-04-06T08:12:38;11.48;;;3.58;;
59388;SDS011;51830;45.202;19.720;2023-04-06T08:15:04;15.10;;;4.47;;
59388;SDS011;51830;45.202;19.720;2023-04-06T08:17:31;15.30;;;4.53;;
59388;SDS011;51830;45.202;19.720;2023-04-06T08:19:59;14.38;;;4.60;;
59388;SDS011;51830;45.202;19.720;2023-04-06T08:22:25;15.10;;;4.25;;
59388;SDS011;51830;45.202;19.720;2023-04-06T08:24:52;10.82;;;3.85;;
59388;SDS011;51830;45.202;19.720;2023-04-06T08:27:18;14.30;;;4.32;;
59388;SDS011;51830;45.202;19.720;2023-04-06T08:29:44;15.77;;;4.22;;
59388;SDS011;51830;45.202;19.720;2023-04-06T08:32:10;13.52;;;4.65;;
59388;SDS011;51830;45.202;19.720;2023-04-06T08:34:36;14.57;;;3.67;;
59388;SDS011;51830;45.202;19.720;2023-04-06T08:37:03;13.27;;;3.65;;
59388;SDS011;51830;45.202;19.720;2023-04-06T08:39:30;15.25;;;4.22;;
59388;SDS011;51830;45.202;19.720;2023-04-06T08:41:58;15.20;;;4.35;;
59388;SDS011;51830;45.202;19.720;2023-04-06T08:44:25;15.57;;;4.50;;
59388;SDS011;51830;45.202;19.720;2023-04-06T08:46:52;15.68;;;4.55;;
59388;SDS011;51830;45.202;19.720;2023-04-06T08:49:18;19.33;;;4.60;;
59388;SDS011;51830;45.202;19.720;2023-04-06T08:51:44;21.17;;;5.10;;
59388;SDS011;51830;45.202;19.720;2023-04-06T08:54:10;13.60;;;3.85;;
59388;SDS011;51830;45.202;19.720;2023-04-06T08:56:37;14.75;;;4.20;;
59388;SDS011;51830;45.202;19.720;2023-04-06T08:59:04;15.38;;;4.72;;
59388;SDS011;51830;45.202;19.720;2023-04-06T09:01:30;15.18;;;4.43;;
59388;SDS011;51830;45.202;19.720;2023-04-06T09:03:57;14.75;;;4.10;;
59388;SDS011;51830;45.202;19.720;2023-04-06T09:06:24;15.18;;;4.32;;
59388;SDS011;51830;45.202;19.720;2023-04-06T09:08:53;16.60;;;4.82;;
59388;SDS011;51830;45.202;19.720;2023-04-06T09:11:20;16.08;;;4.65;;
59388;SDS011;51830;45.202;19.720;2023-04-06T09:13:47;18.40;;;5.20;;
59388;SDS011;51830;45.202;19.720;2023-04-06T09:16:14;16.50;;;4.35;;
59388;SDS011;51830;45.202;19.720;2023-04-06T09:18:40;17.33;;;4.75;;
59388;SDS011;51830;45.202;19.720;2023-04-06T09:21:07;14.88;;;4.03;;
59388;SDS011;51830;45.202;19.720;2023-04-06T09:23:33;16.38;;;4.82;;
59388;SDS011;51830;45.202;19.720;2023-04-06T09:26:10;14.90;;;4.50;;
59388;SDS011;51830;45.202;19.720;2023-04-06T09:31:16;12.55;;;3.75;;
59388;SDS011;51830;45.202;19.720;2023-04-06T09:33:44;12.60;;;3.78;;
59388;SDS011;51830;45.202;19.720;2023-04-06T09:36:10;11.32;;;3.03;;
59388;SDS011;51830;45.202;19.720;2023-04-06T09:38:50;13.88;;;3.45;;
59388;SDS011;51830;45.202;19.720;2023-04-06T09:41:23;12.23;;;3.50;;
59388;SDS011;51830;45.202;19.720;2023-04-06T09:46:16;13.50;;;4.03;;
59388;SDS011;51830;45.202;19.720;2023-04-06T09:48:43;14.32;;;4.32;;
59388;SDS011;51830;45.202;19.720;2023-04-06T09:51:09;11.60;;;3.83;;
59388;SDS011;51830;45.202;19.720;2023-04-06T09:53:37;12.30;;;4.07;;
59388;SDS011;51830;45.202;19.720;2023-04-06T09:56:04;14.13;;;4.45;;
59388;SDS011;51830;45.202;19.720;2023-04-06T09:58:34;14.52;;;3.60;;
59388;SDS011;51830;45.202;19.720;2023-04-06T10:01:10;14.07;;;4.13;;
59388;SDS011;51830;45.202;19.720;2023-04-06T10:06:22;14.63;;;4.18;;
59388;SDS011;51830;45.202;19.720;2023-04-06T10:08:51;15.88;;;4.55;;
59388;SDS011;51830;45.202;19.720;2023-04-06T10:11:19;16.65;;;4.00;;
59388;SDS011;51830;45.202;19.720;2023-04-06T10:13:46;14.00;;;4.40;;
59388;SDS011;51830;45.202;19.720;2023-04-06T10:16:14;15.48;;;4.47;;
59388;SDS011;51830;45.202;19.720;2023-04-06T10:18:41;16.42;;;3.95;;
59388;SDS011;51830;45.202;19.720;2023-04-06T10:21:11;18.42;;;4.75;;
59388;SDS011;51830;45.202;19.720;2023-04-06T10:26:35;13.27;;;4.30;;
59388;SDS011;51830;45.202;19.720;2023-04-06T10:29:02;19.00;;;5.60;;
59388;SDS011;51830;45.202;19.720;2023-04-06T10:31:29;15.95;;;4.53;;
59388;SDS011;51830;45.202;19.720;2023-04-06T10:36:23;24.75;;;7.38;;
59388;SDS011;51830;45.202;19.720;2023-04-06T10:39:00;17.38;;;5.10;;
59388;SDS011;51830;45.202;19.720;2023-04-06T10:41:33;14.68;;;3.90;;
59388;SDS011;51830;45.202;19.720;2023-04-06T10:44:00;14.02;;;3.95;;
59388;SDS011;51830;45.202;19.720;2023-04-06T10:46:27;15.23;;;4.35;;
59388;SDS011;51830;45.202;19.720;2023-04-06T10:48:53;15.98;;;4.68;;
59388;SDS011;51830;45.202;19.720;2023-04-06T10:51:24;20.30;;;5.45;;
59388;SDS011;51830;45.202;19.720;2023-04-06T10:53:54;18.40;;;4.47;;
59388;SDS011;51830;45.202;19.720;2023-04-06T10:56:21;16.17;;;4.50;;
59388;SDS011;51830;45.202;19.720;2023-04-06T10:58:48;17.02;;;4.53;;
59388;SDS011;51830;45.202;19.720;2023-04-06T11:01:18;16.60;;;4.45;;
59388;SDS011;51830;45.202;19.720;2023-04-06T11:03:46;15.95;;;4.82;;
59388;SDS011;51830;45.202;19.720;2023-04-06T11:06:22;15.88;;;4.78;;
59388;SDS011;51830;45.202;19.720;2023-04-06T11:08:49;16.67;;;5.00;;
59388;SDS011;51830;45.202;19.720;2023-04-06T11:11:16;16.70;;;4.80;;
59388;SDS011;51830;45.202;19.720;2023-04-06T11:13:53;16.23;;;5.28;;
59388;SDS011;51830;45.202;19.720;2023-04-06T11:16:21;15.93;;;5.25;;
59388;SDS011;51830;45.202;19.720;2023-04-06T11:21:14;17.33;;;5.03;;
59388;SDS011;51830;45.202;19.720;2023-04-06T11:23:40;17.48;;;5.55;;
59388;SDS011;51830;45.202;19.720;2023-04-06T11:26:10;16.90;;;4.38;;
59388;SDS011;51830;45.202;19.720;2023-04-06T11:28:36;19.10;;;4.70;;
59388;SDS011;51830;45.202;19.720;2023-04-06T11:31:02;16.20;;;4.80;;
59388;SDS011;51830;45.202;19.720;2023-04-06T11:33:29;19.35;;;6.00;;
59388;SDS011;51830;45.202;19.720;2023-04-06T11:36:01;18.10;;;5.77;;
59388;SDS011;51830;45.202;19.720;2023-04-06T11:38:27;19.25;;;5.70;;
59388;SDS011;51830;45.202;19.720;2023-04-06T11:40:53;13.93;;;4.28;;
59388;SDS011;51830;45.202;19.720;2023-04-06T11:43:25;16.27;;;4.90;;
59388;SDS011;51830;45.202;19.720;2023-04-06T11:45:52;15.55;;;5.40;;
59388;SDS011;51830;45.202;19.720;2023-04-06T11:48:26;13.95;;;4.30;;
59388;SDS011;51830;45.202;19.720;2023-04-06T11:50:56;16.05;;;4.80;;
59388;SDS011;51830;45.202;19.720;2023-04-06T11:53:23;15.63;;;4.78;;
59388;SDS011;51830;45.202;19.720;2023-04-06T11:55:49;15.70;;;5.05;;
59388;SDS011;51830;45.202;19.720;2023-04-06T11:58:16;15.15;;;4.70;;
59388;SDS011;51830;45.202;19.720;2023-04-06T12:00:43;17.10;;;5.45;;
59388;SDS011;51830;45.202;19.720;2023-04-06T12:03:11;18.00;;;5.90;;
59388;SDS011;51830;45.202;19.720;2023-04-06T12:05:37;18.10;;;5.35;;
59388;SDS011;51830;45.202;19.720;2023-04-06T12:08:03;18.20;;;5.28;;
59388;SDS011;51830;45.202;19.720;2023-04-06T12:10:30;18.65;;;4.90;;
59388;SDS011;51830;45.202;19.720;2023-04-06T12:12:56;16.35;;;5.22;;
59388;SDS011;51830;45.202;19.720;2023-04-06T12:15:22;14.85;;;4.55;;
59388;SDS011;51830;45.202;19.720;2023-04-06T12:17:48;17.40;;;5.25;;
59388;SDS011;51830;45.202;19.720;2023-04-06T12:20:15;15.93;;;4.85;;
59388;SDS011;51830;45.202;19.720;2023-04-06T12:22:41;17.00;;;5.10;;
59388;SDS011;51830;45.202;19.720;2023-04-06T12:25:07;17.98;;;5.93;;
59388;SDS011;51830;45.202;19.720;2023-04-06T12:27:33;17.23;;;5.40;;
59388;SDS011;51830;45.202;19.720;2023-04-06T12:29:59;17.15;;;5.55;;
59388;SDS011;51830;45.202;19.720;2023-04-06T12:32:26;16.08;;;5.30;;
59388;SDS011;51830;45.202;19.720;2023-04-06T12:34:52;17.38;;;5.00;;
59388;SDS011;51830;45.202;19.720;2023-04-06T12:37:18;15.63;;;5.30;;
59388;SDS011;51830;45.202;19.720;2023-04-06T12:39:45;15.07;;;4.85;;
59388;SDS011;51830;45.202;19.720;2023-04-06T12:42:11;16.02;;;4.93;;
59388;SDS011;51830;45.202;19.720;2023-04-06T12:44:38;17.20;;;5.47;;
59388;SDS011;51830;45.202;19.720;2023-04-06T12:47:07;15.95;;;4.88;;
59388;SDS011;51830;45.202;19.720;2023-04-06T12:49:33;23.33;;;5.43;;
59388;SDS011;51830;45.202;19.720;2023-04-06T12:52:01;19.55;;;5.68;;
59388;SDS011;51830;45.202;19.720;2023-04-06T12:54:27;19.27;;;5.72;;
59388;SDS011;51830;45.202;19.720;2023-04-06T12:56:53;17.35;;;4.80;;
59388;SDS011;51830;45.202;19.720;2023-04-06T12:59:21;18.05;;;5.25;;
59388;SDS011;51830;45.202;19.720;2023-04-06T13:01:50;15.50;;;4.85;;
59388;SDS011;51830;45.202;19.720;2023-04-06T13:04:17;15.32;;;5.05;;
59388;SDS011;51830;45.202;19.720;2023-04-06T13:06:43;14.90;;;4.70;;
59388;SDS011;51830;45.202;19.720;2023-04-06T13:09:09;15.68;;;4.65;;
59388;SDS011;51830;45.202;19.720;2023-04-06T13:11:36;16.23;;;5.15;;
59388;SDS011;51830;45.202;19.720;2023-04-06T13:14:02;15.80;;;4.15;;
59388;SDS011;51830;45.202;19.720;2023-04-06T13:16:28;16.67;;;5.15;;
59388;SDS011;51830;45.202;19.720;2023-04-06T13:18:55;16.90;;;4.82;;
59388;SDS011;51830;45.202;19.720;2023-04-06T13:21:21;15.98;;;5.78;;
59388;SDS011;51830;45.202;19.720;2023-04-06T13:23:47;16.85;;;5.32;;
59388;SDS011;51830;45.202;19.720;2023-04-06T13:26:13;16.00;;;4.85;;
59388;SDS011;51830;45.202;19.720;2023-04-06T13:28:40;11.57;;;3.58;;
59388;SDS011;51830;45.202;19.720;2023-04-06T13:31:06;18.52;;;4.70;;
59388;SDS011;51830;45.202;19.720;2023-04-06T13:33:33;13.38;;;4.25;;
59388;SDS011;51830;45.202;19.720;2023-04-06T13:35:59;14.20;;;3.67;;
59388;SDS011;51830;45.202;19.720;2023-04-06T13:38:25;13.38;;;4.35;;
59388;SDS011;51830;45.202;19.720;2023-04-06T13:40:52;15.80;;;4.97;;
59388;SDS011;51830;45.202;19.720;2023-04-06T13:43:18;13.88;;;4.43;;
59388;SDS011;51830;45.202;19.720;2023-04-06T13:45:48;17.27;;;5.38;;
59388;SDS011;51830;45.202;19.720;2023-04-06T13:48:15;16.77;;;4.10;;
59388;SDS011;51830;45.202;19.720;2023-04-06T13:50:41;13.73;;;4.30;;
59388;SDS011;51830;45.202;19.720;2023-04-06T13:53:07;16.02;;;4.10;;
59388;SDS011;51830;45.202;19.720;2023-04-06T13:55:33;14.82;;;4.07;;
59388;SDS011;51830;45.202;19.720;2023-04-06T13:58:00;13.35;;;4.20;;
59388;SDS011;51830;45.202;19.720;2023-04-06T14:00:26;14.18;;;4.25;;
59388;SDS011;51830;45.202;19.720;2023-04-06T14:02:53;15.88;;;4.57;;
59388;SDS011;51830;45.202;19.720;2023-04-06T14:05:20;14.23;;;4.43;;
59388;SDS011;51830;45.202;19.720;2023-04-06T14:07:47;11.48;;;3.47;;
59388;SDS011;51830;45.202;19.720;2023-04-06T14:10:13;13.65;;;4.07;;
59388;SDS011;51830;45.202;19.720;2023-04-06T14:12:41;11.45;;;3.58;;
59388;SDS011;51830;45.202;19.720;2023-04-06T14:15:08;17.98;;;5.13;;
59388;SDS011;51830;45.202;19.720;2023-04-06T14:17:34;16.40;;;4.90;;
59388;SDS011;51830;45.202;19.720;2023-04-06T14:20:00;16.63;;;5.03;;
59388;SDS011;51830;45.202;19.720;2023-04-06T14:22:27;15.23;;;3.95;;
59388;SDS011;51830;45.202;19.720;2023-04-06T14:24:53;14.80;;;4.38;;
59388;SDS011;51830;45.202;19.720;2023-04-06T14:27:20;15.88;;;4.97;;
59388;SDS011;51830;45.202;19.720;2023-04-06T14:29:47;12.65;;;3.70;;
59388;SDS011;51830;45.202;19.720;2023-04-06T14:32:13;13.05;;;3.63;;
59388;SDS011;51830;45.202;19.720;2023-04-06T14:34:39;12.60;;;3.85;;